createdAt,value
2019-01-18T00:00:43.605Z,68.14
2019-01-18T00:03:14.815Z,67.60
2019-01-18T00:05:45.938Z,68.35
2019-01-18T00:08:17.084Z,68.12
2019-01-18T00:10:48.291Z,66.02
2019-01-18T00:13:19.446Z,66.04
2019-01-18T00:15:50.617Z,65.97
2019-01-18T00:18:21.865Z,65.66
2019-01-18T00:20:52.956Z,65.98
2019-01-18T00:23:23.965Z,66.20
2019-01-18T00:25:55.135Z,66.27
2019-01-18T00:28:26.313Z,66.57
2019-01-18T00:30:57.451Z,66.39
2019-01-18T00:33:29.471Z,66.89
2019-01-18T00:36:00.534Z,66.36
2019-01-18T00:38:31.598Z,66.97
2019-01-18T00:41:02.750Z,67.08
2019-01-18T00:43:33.736Z,67.45
2019-01-18T00:46:04.921Z,68.20
2019-01-18T00:48:35.962Z,68.13
2019-01-18T00:51:07.107Z,68.46
2019-01-18T00:53:38.162Z,69.24
2019-01-18T00:56:09.315Z,74.56
2019-01-18T00:58:40.372Z,76.75
2019-01-18T01:01:11.754Z,77.70
2019-01-18T01:03:42.871Z,78.12
2019-01-18T01:06:14.072Z,78.39
2019-01-18T01:08:45.219Z,78.08
2019-01-18T01:11:16.364Z,78.15
2019-01-18T01:13:47.417Z,78.92
2019-01-18T01:16:18.580Z,79.28
2019-01-18T01:18:49.708Z,79.71
2019-01-18T01:21:20.881Z,80.28
2019-01-18T01:23:51.971Z,80.36
2019-01-18T01:26:23.107Z,79.90
2019-01-18T01:28:54.239Z,79.35
2019-01-18T01:31:25.326Z,78.29
2019-01-18T01:33:56.371Z,77.89
2019-01-18T01:36:27.518Z,77.23
2019-01-18T01:38:58.640Z,74.52
2019-01-18T01:41:29.862Z,74.29
2019-01-18T01:44:01.014Z,74.79
2019-01-18T01:46:32.151Z,72.59
2019-01-18T01:49:03.279Z,72.39
2019-01-18T01:51:34.473Z,72.49
2019-01-18T01:54:05.685Z,72.64
2019-01-18T01:56:36.836Z,72.87
2019-01-18T01:59:07.944Z,71.65
2019-01-18T02:01:39.025Z,72.24
2019-01-18T02:04:10.267Z,71.90
2019-01-18T02:06:41.330Z,71.56
2019-01-18T02:09:12.447Z,72.17
2019-01-18T02:11:43.607Z,71.83
2019-01-18T02:14:14.714Z,71.48
2019-01-18T02:16:47.832Z,71.74
2019-01-18T02:19:18.579Z,71.96
2019-01-18T02:21:49.706Z,71.89
2019-01-18T02:24:20.770Z,72.25
2019-01-18T02:26:51.832Z,71.80
2019-01-18T02:29:22.948Z,72.03
2019-01-18T02:31:54.119Z,71.17
2019-01-18T02:34:25.183Z,71.47
2019-01-18T02:36:56.347Z,72.10
2019-01-18T02:39:27.358Z,72.18
2019-01-18T02:41:58.560Z,71.18
2019-01-18T02:44:29.679Z,71.11
2019-01-18T02:47:00.750Z,71.55
2019-01-18T02:49:31.874Z,71.41
2019-01-18T02:52:03.046Z,71.00
2019-01-18T02:54:34.021Z,71.24
2019-01-18T02:57:06.153Z,71.15
2019-01-18T02:59:37.272Z,71.26
2019-01-18T03:02:08.429Z,71.19
2019-01-18T03:04:39.552Z,71.12
2019-01-18T03:07:11.056Z,71.44
2019-01-18T03:09:42.170Z,71.41
2019-01-18T03:12:13.222Z,71.03
2019-01-18T03:14:44.273Z,71.24
2019-01-18T03:17:15.491Z,71.39
2019-01-18T03:19:46.556Z,71.14
2019-01-18T03:22:17.554Z,70.55
2019-01-18T03:24:48.644Z,70.69
2019-01-18T03:27:19.715Z,70.96
2019-01-18T03:29:50.794Z,70.86
2019-01-18T03:32:21.880Z,69.43
2019-01-18T03:34:53.175Z,68.92
2019-01-18T03:37:24.322Z,68.96
2019-01-18T03:39:55.363Z,69.06
2019-01-18T03:42:26.508Z,69.44
2019-01-18T03:44:57.560Z,69.24
2019-01-18T03:47:28.912Z,68.97
2019-01-18T03:50:00.003Z,68.81
2019-01-18T03:52:31.125Z,68.32
2019-01-18T03:55:02.256Z,68.31
2019-01-18T03:57:33.340Z,68.58
2019-01-18T04:00:05.988Z,68.34
2019-01-18T04:02:37.057Z,68.16
2019-01-18T04:05:09.064Z,68.83
2019-01-18T04:07:40.207Z,68.61
2019-01-18T04:10:13.518Z,68.44
2019-01-18T04:12:45.921Z,68.36
2019-01-18T04:15:18.973Z,67.89
2019-01-18T04:17:50.131Z,68.32
2019-01-18T04:20:21.570Z,68.19
2019-01-18T04:22:52.748Z,67.38
2019-01-18T04:25:27.986Z,66.65
2019-01-18T04:28:00.043Z,66.57
2019-01-18T04:30:33.533Z,67.01
2019-01-18T04:33:03.815Z,66.58
2019-01-18T04:35:34.875Z,66.02
2019-01-18T04:38:06.069Z,65.03
2019-01-18T04:40:37.067Z,65.66
2019-01-18T04:43:08.267Z,65.20
2019-01-18T04:45:42.016Z,65.06
2019-01-18T04:48:12.255Z,65.40
2019-01-18T04:50:43.268Z,64.73
2019-01-18T04:53:14.421Z,64.60
2019-01-18T04:55:45.554Z,64.68
2019-01-18T04:58:16.584Z,64.74
2019-01-18T05:00:47.730Z,65.65
2019-01-18T05:03:18.811Z,64.97
2019-01-18T05:05:51.170Z,65.02
2019-01-18T05:08:22.158Z,65.88
2019-01-18T05:10:53.130Z,65.34
2019-01-18T05:13:24.214Z,65.14
2019-01-18T05:15:55.604Z,65.30
2019-01-18T05:18:26.755Z,65.68
2019-01-18T05:20:57.821Z,65.77
2019-01-18T05:23:28.893Z,65.25
2019-01-18T05:25:59.898Z,65.34
2019-01-18T05:28:31.012Z,65.92
2019-01-18T05:31:02.242Z,66.10
2019-01-18T05:33:33.313Z,65.21
2019-01-18T05:36:04.566Z,65.58
2019-01-18T05:38:35.805Z,64.96
2019-01-18T05:41:07.031Z,64.65
2019-01-18T05:43:38.031Z,64.81
2019-01-18T05:46:09.061Z,64.87
2019-01-18T05:48:40.073Z,64.45
2019-01-18T05:51:11.286Z,64.30
2019-01-18T05:53:42.404Z,64.23
2019-01-18T05:56:13.516Z,64.73
2019-01-18T05:58:45.676Z,64.44
2019-01-18T06:01:17.297Z,63.97
2019-01-18T06:03:48.459Z,64.21
2019-01-18T06:06:19.588Z,64.37
2019-01-18T06:08:50.750Z,64.28
2019-01-18T06:11:21.728Z,64.58
2019-01-18T06:13:52.818Z,64.95
2019-01-18T06:16:23.963Z,65.23
2019-01-18T06:18:55.130Z,64.67
2019-01-18T06:21:26.217Z,64.98
2019-01-18T06:23:57.228Z,65.06
2019-01-18T06:26:28.829Z,64.96
2019-01-18T06:29:00.919Z,65.44
2019-01-18T06:31:32.151Z,65.12
2019-01-18T06:34:03.562Z,65.18
2019-01-18T06:36:34.940Z,65.40
2019-01-18T06:39:07.885Z,64.88
2019-01-18T06:41:48.873Z,65.19
2019-01-18T06:44:20.061Z,65.02
2019-01-18T06:46:51.550Z,65.32
2019-01-18T06:49:22.736Z,64.43
2019-01-18T06:51:54.121Z,65.14
2019-01-18T06:54:25.377Z,65.17
2019-01-18T06:56:56.524Z,64.81
2019-01-18T06:59:28.114Z,64.27
2019-01-18T07:01:59.135Z,64.53
2019-01-18T07:04:30.221Z,63.85
2019-01-18T07:07:02.453Z,63.36
2019-01-18T07:09:33.791Z,63.70
2019-01-18T07:12:04.941Z,63.23
2019-01-18T07:14:36.062Z,63.34
2019-01-18T07:17:07.195Z,63.07
2019-01-18T07:19:38.819Z,63.30
2019-01-18T07:22:10.151Z,62.94
2019-01-18T07:24:41.619Z,62.52
2019-01-18T07:27:12.780Z,62.95
2019-01-18T07:29:43.946Z,63.18
2019-01-18T07:32:15.094Z,63.76
2019-01-18T07:34:46.088Z,62.99
2019-01-18T07:37:17.142Z,62.86
2019-01-18T07:39:48.217Z,61.84
2019-01-18T07:42:19.428Z,62.53
2019-01-18T07:44:50.521Z,63.50
2019-01-18T07:47:21.572Z,66.32
2019-01-18T07:49:52.872Z,64.55
2019-01-18T07:52:24.089Z,64.11
2019-01-18T07:54:55.315Z,63.86
2019-01-18T07:57:26.362Z,63.54
2019-01-18T07:59:57.439Z,63.48
2019-01-18T08:02:28.757Z,62.51
2019-01-18T08:05:00.521Z,63.85
2019-01-18T08:07:31.650Z,60.76
2019-01-18T08:10:02.867Z,61.61
2019-01-18T08:12:33.969Z,61.51
2019-01-18T08:15:06.183Z,61.63
2019-01-18T08:17:37.327Z,61.41
2019-01-18T08:20:11.522Z,60.52
2019-01-18T08:22:42.975Z,60.36
2019-01-18T08:25:14.998Z,60.63
2019-01-18T08:27:46.285Z,59.65
2019-01-18T08:30:19.850Z,60.20
2019-01-18T08:32:50.898Z,59.20
2019-01-18T08:35:23.002Z,58.78
2019-01-18T08:37:54.163Z,59.12
2019-01-18T08:40:28.871Z,59.89
2019-01-18T08:42:59.922Z,59.54
2019-01-18T08:45:34.334Z,60.92
2019-01-18T08:48:06.702Z,60.58
2019-01-18T08:50:38.164Z,60.56
2019-01-18T08:53:09.374Z,60.91
2019-01-18T08:55:40.646Z,60.35
2019-01-18T08:58:11.751Z,59.54
2019-01-18T09:00:42.822Z,59.35
2019-01-18T09:03:13.964Z,59.39
2019-01-18T09:05:45.066Z,59.25
2019-01-18T09:08:16.030Z,59.57
2019-01-18T09:10:47.386Z,59.51
2019-01-18T09:13:18.540Z,60.25
2019-01-18T09:15:50.351Z,61.61
2019-01-18T09:18:21.359Z,60.69
2019-01-18T09:20:52.512Z,60.69
2019-01-18T09:23:23.632Z,60.29
2019-01-18T09:25:54.883Z,60.17
2019-01-18T09:28:26.058Z,60.56
2019-01-18T09:30:58.280Z,59.68
2019-01-18T09:33:29.352Z,61.70
2019-01-18T09:36:00.549Z,64.11
2019-01-18T09:38:31.824Z,65.12
2019-01-18T09:41:02.960Z,63.81
2019-01-18T09:43:34.089Z,64.12
2019-01-18T09:46:05.452Z,63.08
2019-01-18T09:48:36.652Z,62.98
2019-01-18T09:51:07.967Z,63.31
2019-01-18T09:53:39.018Z,63.31
2019-01-18T09:56:10.257Z,61.95
2019-01-18T09:58:41.339Z,62.10
2019-01-18T10:01:12.711Z,62.55
2019-01-18T10:03:43.852Z,62.94
2019-01-18T10:06:14.990Z,62.75
2019-01-18T10:08:46.065Z,62.75
2019-01-18T10:11:18.434Z,62.98
2019-01-18T10:13:50.630Z,62.62
2019-01-18T10:16:21.756Z,62.51
2019-01-18T10:18:52.847Z,64.21
2019-01-18T10:21:24.144Z,63.41
2019-01-18T10:23:55.324Z,61.87
2019-01-18T10:26:26.432Z,59.67
2019-01-18T10:28:57.491Z,58.38
2019-01-18T10:31:28.531Z,57.15
2019-01-18T10:33:59.583Z,54.79
2019-01-18T10:36:30.783Z,55.55
2019-01-18T10:39:01.926Z,55.85
2019-01-18T10:41:34.290Z,56.11
2019-01-18T10:44:06.168Z,58.72
2019-01-18T10:46:37.610Z,57.65
2019-01-18T10:49:08.732Z,58.22
2019-01-18T10:51:39.981Z,56.88
2019-01-18T10:54:11.147Z,58.48
2019-01-18T10:56:42.235Z,58.43
2019-01-18T10:59:13.325Z,60.01
2019-01-18T11:01:44.397Z,59.67
2019-01-18T11:04:15.472Z,60.36
2019-01-18T11:06:46.536Z,61.10
2019-01-18T11:09:17.756Z,61.60
2019-01-18T11:11:48.836Z,62.02
2019-01-18T11:14:19.955Z,62.59
2019-01-18T11:16:51.015Z,62.45
2019-01-18T11:19:22.172Z,61.22
2019-01-18T11:21:53.222Z,62.58
2019-01-18T11:24:24.330Z,63.47
2019-01-18T11:26:55.411Z,61.76
2019-01-18T11:29:26.540Z,60.80
2019-01-18T11:31:57.749Z,60.79
2019-01-18T11:34:28.888Z,59.21
2019-01-18T11:36:59.998Z,57.74
2019-01-18T11:39:31.102Z,57.75
2019-01-18T11:42:05.283Z,56.04
2019-01-18T11:44:35.185Z,54.92
2019-01-18T11:47:06.378Z,52.28
2019-01-18T11:49:37.642Z,51.78
2019-01-18T11:52:08.790Z,50.05
2019-01-18T11:54:43.980Z,50.19
2019-01-18T11:57:12.686Z,51.74
2019-01-18T11:59:49.034Z,52.63
2019-01-18T12:02:22.030Z,52.05
2019-01-18T12:04:50.467Z,53.48
2019-01-18T12:07:21.483Z,51.71
2019-01-18T12:09:52.515Z,52.99
2019-01-18T12:12:23.649Z,52.60
2019-01-18T12:14:54.723Z,50.06
2019-01-18T12:17:25.956Z,50.79
2019-01-18T12:19:57.225Z,48.18
2019-01-18T12:22:28.373Z,35.79
2019-01-18T12:24:59.375Z,32.34
2019-01-18T12:27:30.518Z,29.92
2019-01-18T12:30:01.829Z,24.17
2019-01-18T12:32:34.050Z,22.15
2019-01-18T12:35:05.666Z,32.40
2019-01-18T12:37:37.127Z,34.83
2019-01-18T12:40:08.237Z,36.65
2019-01-18T12:42:39.576Z,38.91
2019-01-18T12:45:13.840Z,42.81
2019-01-18T12:47:44.994Z,44.71
2019-01-18T12:50:39.266Z,44.97
2019-01-18T12:53:11.357Z,46.77
2019-01-18T12:55:42.502Z,45.04
2019-01-18T12:58:13.513Z,44.99
2019-01-18T13:00:44.725Z,45.70
2019-01-18T13:03:15.831Z,44.58
2019-01-18T13:05:52.057Z,41.56
2019-01-18T13:08:23.145Z,34.17
2019-01-18T13:10:54.294Z,25.73
2019-01-18T13:13:25.570Z,23.75
2019-01-18T13:16:38.170Z,19.93
2019-01-18T13:19:14.814Z,17.49
2019-01-18T13:21:45.881Z,23.04
2019-01-18T13:24:17.178Z,24.35
2019-01-18T13:26:48.327Z,28.16
2019-01-18T13:29:19.523Z,33.61
2019-01-18T13:31:50.673Z,38.70
2019-01-18T13:34:21.823Z,40.77
2019-01-18T13:36:53.067Z,41.92
2019-01-18T13:39:24.120Z,43.21
2019-01-18T13:41:55.335Z,44.29
2019-01-18T13:44:26.413Z,45.59
2019-01-18T13:46:57.515Z,47.04
2019-01-18T13:49:28.661Z,48.41
2019-01-18T13:51:59.764Z,49.70
2019-01-18T13:54:30.907Z,49.77
2019-01-18T13:57:02.062Z,49.68
2019-01-18T13:59:33.237Z,49.67
2019-01-18T14:02:04.438Z,49.77
2019-01-18T14:04:35.566Z,49.91
2019-01-18T14:07:06.784Z,49.79
2019-01-18T14:09:37.925Z,49.71
2019-01-18T14:12:08.977Z,50.62
2019-01-18T14:14:40.418Z,50.45
2019-01-18T14:17:11.577Z,50.87
2019-01-18T14:19:42.554Z,51.76
2019-01-18T14:22:13.634Z,51.58
2019-01-18T14:24:44.762Z,51.08
2019-01-18T14:27:16.873Z,50.63
2019-01-18T14:29:48.024Z,50.85
2019-01-18T14:32:19.221Z,50.91
2019-01-18T14:34:50.271Z,50.08
2019-01-18T14:37:21.419Z,49.05
2019-01-18T14:39:52.416Z,41.70
2019-01-18T14:42:23.557Z,34.24
2019-01-18T14:44:54.698Z,28.95
2019-01-18T14:47:25.714Z,28.78
2019-01-18T14:49:56.807Z,30.98
2019-01-18T14:52:27.954Z,32.82
2019-01-18T14:54:59.027Z,35.43
2019-01-18T14:57:30.122Z,37.60
2019-01-18T15:00:01.180Z,37.97
2019-01-18T15:02:32.230Z,38.76
2019-01-18T15:05:03.390Z,41.12
2019-01-18T15:07:34.508Z,43.00
2019-01-18T15:10:07.300Z,44.83
2019-01-18T15:12:38.411Z,45.24
2019-01-18T15:15:11.844Z,46.69
2019-01-18T15:17:43.090Z,47.65
2019-01-18T15:20:25.817Z,49.92
2019-01-18T15:22:56.958Z,51.40
2019-01-18T15:25:28.082Z,51.96
2019-01-18T15:28:00.991Z,52.97
2019-01-18T15:30:32.634Z,53.43
2019-01-18T15:33:09.063Z,53.90
2019-01-18T15:35:38.696Z,54.81
2019-01-18T15:38:11.186Z,54.86
2019-01-18T15:40:45.727Z,55.24
2019-01-18T15:43:22.692Z,56.11
2019-01-18T15:45:53.845Z,55.78
2019-01-18T15:48:24.889Z,56.36
2019-01-18T15:50:56.099Z,56.40
2019-01-18T15:53:27.303Z,56.61
2019-01-18T15:55:59.572Z,57.26
2019-01-18T15:58:30.649Z,57.85
2019-01-18T16:01:01.775Z,58.26
2019-01-18T16:03:32.814Z,58.31
2019-01-18T16:06:04.258Z,58.35
2019-01-18T16:08:35.395Z,59.06
2019-01-18T16:11:06.467Z,59.38
2019-01-18T16:13:37.443Z,59.89
2019-01-18T16:16:33.688Z,60.73
2019-01-18T16:19:04.941Z,60.80
2019-01-18T16:21:36.074Z,61.55
2019-01-18T16:24:07.186Z,61.60
2019-01-18T16:26:38.322Z,62.15
2019-01-18T16:29:09.629Z,62.49
2019-01-18T16:31:40.687Z,62.87
2019-01-18T16:34:11.770Z,63.47
2019-01-18T16:36:43.927Z,64.03
2019-01-18T16:39:15.081Z,64.48
2019-01-18T16:41:46.222Z,64.66
2019-01-18T16:44:17.367Z,63.68
2019-01-18T16:46:48.818Z,64.44
2019-01-18T16:49:19.915Z,64.61
2019-01-18T16:51:50.995Z,66.00
2019-01-18T16:54:23.323Z,65.58
2019-01-18T16:56:54.599Z,64.96
2019-01-18T16:59:25.694Z,65.21
2019-01-18T17:01:56.774Z,64.92
2019-01-18T17:04:27.858Z,65.71
2019-01-18T17:06:58.983Z,65.09
2019-01-18T17:09:30.103Z,65.94
2019-01-18T17:12:01.094Z,65.73
2019-01-18T17:14:32.167Z,64.64
2019-01-18T17:17:03.314Z,64.53
2019-01-18T17:19:34.380Z,64.64
2019-01-18T17:22:05.543Z,64.63
2019-01-18T17:24:36.606Z,64.38
2019-01-18T17:27:07.694Z,65.33
2019-01-18T17:29:38.756Z,65.14
2019-01-18T17:32:09.936Z,64.91
2019-01-18T17:34:41.092Z,66.06
2019-01-18T17:37:22.743Z,65.69
2019-01-18T17:40:44.088Z,65.79
2019-01-18T17:43:43.510Z,65.95
2019-01-18T17:46:42.341Z,65.86
2019-01-18T17:49:39.317Z,65.55
2019-01-18T17:52:50.579Z,66.08
2019-01-18T17:55:55.600Z,65.75
2019-01-18T17:59:04.767Z,66.68
2019-01-18T18:02:01.642Z,67.08
2019-01-18T18:05:03.174Z,66.25
2019-01-18T18:08:30.332Z,64.79
2019-01-18T18:11:58.039Z,64.31
2019-01-18T18:14:45.152Z,64.53
2019-01-18T18:17:49.960Z,63.60
2019-01-18T18:20:54.185Z,63.53
2019-01-18T18:24:10.250Z,64.09
2019-01-18T18:27:11.303Z,65.35
2019-01-18T18:30:18.697Z,65.55
2019-01-18T18:33:30.751Z,65.77
2019-01-18T18:36:16.423Z,66.12
2019-01-18T18:39:13.863Z,66.86
2019-01-18T18:42:08.029Z,67.48
2019-01-18T18:45:04.687Z,67.84
2019-01-18T18:48:23.077Z,67.28
2019-01-18T18:51:21.491Z,67.22
2019-01-18T18:54:33.491Z,67.65
2019-01-18T18:58:06.943Z,66.68
2019-01-18T19:00:51.559Z,67.04
2019-01-18T19:03:36.235Z,67.96
2019-01-18T19:06:31.251Z,68.18
2019-01-18T19:09:21.247Z,68.46
2019-01-18T19:12:34.038Z,69.38
2019-01-18T19:15:36.844Z,69.29
2019-01-18T19:18:45.459Z,68.83
2019-01-18T19:22:08.806Z,69.19
2019-01-18T19:25:17.122Z,70.04
2019-01-18T19:28:28.842Z,70.45
2019-01-18T19:31:53.482Z,70.93
2019-01-18T19:35:05.964Z,70.63
2019-01-18T19:38:17.298Z,70.82
2019-01-18T19:41:01.376Z,71.50
2019-01-18T19:44:05.380Z,71.19
2019-01-18T19:47:03.665Z,70.37
2019-01-18T19:50:21.581Z,71.00
2019-01-18T19:53:43.569Z,71.33
2019-01-18T19:56:47.019Z,71.86
2019-01-18T19:59:58.222Z,71.99
2019-01-18T20:02:57.706Z,72.36
2019-01-18T20:06:03.190Z,72.49
2019-01-18T20:08:56.223Z,71.94
2019-01-18T20:12:07.423Z,71.48
2019-01-18T20:15:16.766Z,71.31
2019-01-18T20:18:30.611Z,71.79
2019-01-18T20:21:45.438Z,71.83
2019-01-18T20:25:05.625Z,70.85
2019-01-18T20:27:53.669Z,71.11
2019-01-18T20:31:07.871Z,71.15
2019-01-18T20:34:18.481Z,71.37
2019-01-18T20:37:18.637Z,70.51
2019-01-18T20:40:33.680Z,70.27
2019-01-18T20:43:38.330Z,70.54
2019-01-18T20:46:50.597Z,70.24
2019-01-18T20:49:46.622Z,70.39
2019-01-18T20:52:40.953Z,70.46
2019-01-18T20:55:20.611Z,71.16
2019-01-18T20:58:30.581Z,70.89
2019-01-18T21:02:01.191Z,70.78
2019-01-18T21:05:16.378Z,70.96
2019-01-18T21:08:26.971Z,70.65
2019-01-18T21:11:35.138Z,70.75
2019-01-18T21:14:40.113Z,71.20
2019-01-18T21:17:43.566Z,71.89
2019-01-18T21:20:56.032Z,71.67
2019-01-18T21:23:48.345Z,72.04
2019-01-18T21:26:55.883Z,73.07
2019-01-18T21:30:26.205Z,72.02
2019-01-18T21:33:37.991Z,72.54
2019-01-18T21:36:53.275Z,72.41
2019-01-18T21:40:06.141Z,72.42
2019-01-18T21:43:10.673Z,72.82
2019-01-18T21:46:28.868Z,72.84
2019-01-18T21:49:19.012Z,73.21
2019-01-18T21:52:30.231Z,73.81
2019-01-18T21:55:13.026Z,74.45
2019-01-18T21:57:58.447Z,74.96
2019-01-18T22:00:55.198Z,73.86
2019-01-18T22:03:39.794Z,74.34
2019-01-18T22:06:50.269Z,73.82
2019-01-18T22:09:53.580Z,74.52
2019-01-18T22:13:21.142Z,73.94
2019-01-18T22:16:28.553Z,74.15
2019-01-18T22:19:55.057Z,74.11
2019-01-18T22:22:54.093Z,73.76
2019-01-18T22:25:58.901Z,74.08
2019-01-18T22:29:16.950Z,74.55
2019-01-18T22:32:01.442Z,74.53
2019-01-18T22:34:47.577Z,74.79
2019-01-18T22:37:24.647Z,74.71
2019-01-18T22:40:19.275Z,74.83
2019-01-18T22:43:01.809Z,74.86
2019-01-18T22:46:26.069Z,75.12
2019-01-18T22:49:34.364Z,75.23
2019-01-18T22:52:31.654Z,75.40
2019-01-18T22:55:44.583Z,75.35
2019-01-18T22:58:38.523Z,75.01
2019-01-18T23:01:38.037Z,74.56
2019-01-18T23:04:39.722Z,73.90
2019-01-18T23:07:54.494Z,73.76
2019-01-18T23:10:52.630Z,74.12
2019-01-18T23:13:57.272Z,74.17
2019-01-18T23:17:40.048Z,74.37
2019-01-18T23:20:49.933Z,73.99
2019-01-18T23:23:28.049Z,73.87
2019-01-18T23:26:26.018Z,74.26
2019-01-18T23:29:19.692Z,73.54
2019-01-18T23:32:23.033Z,74.07
2019-01-18T23:35:06.210Z,73.97
2019-01-18T23:38:12.346Z,73.74
2019-01-18T23:41:14.383Z,73.74
2019-01-18T23:44:08.651Z,73.85
2019-01-18T23:47:26.977Z,73.33
2019-01-18T23:50:36.586Z,73.80
2019-01-18T23:53:15.705Z,73.47
2019-01-18T23:56:31.150Z,73.45
2019-01-18T23:59:14.614Z,73.63
